アティラウ の空港の天気 - METARとTAF

Atyrau Airport ( UATG / GUW ) - カザフスタン Atyrau
飛行場実況気象(Metar)
観測時間10/15 22:00 ORAT (10/15 17:00 UTC)
風向・風速南南西 5m/s
視程10km以上
天気現象
なし
気温13℃
湿度82%
気圧1020hPa
METARUATG 151700Z 21005MPS CAVOK 13/10 Q1020 R14/CLRD70 NOSIG RMK QFE767/1022
過去の天気等 Google飛行場航空写真 Wunderground天気予報

過去48時間のMETAR

飛行場予報(TAF)
データがありません